sensor_id;sensor_type;location;lat;lon;timestamp;P1;durP1;ratioP1;P2;durP2;ratioP2
20743;SDS011;56303;52.160;-0.428;2022-07-31T00:02:06;4.60;;;2.87;;
20743;SDS011;56303;52.160;-0.428;2022-07-31T00:04:33;3.17;;;2.70;;
20743;SDS011;56303;52.160;-0.428;2022-07-31T00:07:00;5.33;;;2.57;;
20743;SDS011;56303;52.160;-0.428;2022-07-31T00:09:27;3.30;;;2.83;;
20743;SDS011;56303;52.160;-0.428;2022-07-31T00:12:14;3.53;;;2.33;;
20743;SDS011;56303;52.160;-0.428;2022-07-31T00:14:42;2.87;;;2.53;;
20743;SDS011;56303;52.160;-0.428;2022-07-31T00:17:10;3.43;;;2.70;;
20743;SDS011;56303;52.160;-0.428;2022-07-31T00:19:36;4.40;;;2.90;;
20743;SDS011;56303;52.160;-0.428;2022-07-31T00:22:04;3.23;;;2.70;;
20743;SDS011;56303;52.160;-0.428;2022-07-31T00:24:30;5.50;;;3.30;;
20743;SDS011;56303;52.160;-0.428;2022-07-31T00:26:57;3.93;;;2.30;;
20743;SDS011;56303;52.160;-0.428;2022-07-31T00:29:25;4.00;;;2.90;;
20743;SDS011;56303;52.160;-0.428;2022-07-31T00:31:52;3.97;;;2.77;;
20743;SDS011;56303;52.160;-0.428;2022-07-31T00:34:19;4.10;;;3.33;;
20743;SDS011;56303;52.160;-0.428;2022-07-31T00:36:46;4.90;;;3.10;;
20743;SDS011;56303;52.160;-0.428;2022-07-31T00:39:13;3.63;;;2.70;;
20743;SDS011;56303;52.160;-0.428;2022-07-31T00:41:41;4.93;;;2.90;;
20743;SDS011;56303;52.160;-0.428;2022-07-31T00:44:10;2.97;;;2.57;;
20743;SDS011;56303;52.160;-0.428;2022-07-31T00:46:38;3.70;;;3.07;;
20743;SDS011;56303;52.160;-0.428;2022-07-31T00:49:08;3.57;;;2.63;;
20743;SDS011;56303;52.160;-0.428;2022-07-31T00:51:36;3.57;;;2.60;;
20743;SDS011;56303;52.160;-0.428;2022-07-31T00:54:06;3.93;;;2.70;;
20743;SDS011;56303;52.160;-0.428;2022-07-31T00:56:34;2.73;;;2.23;;
20743;SDS011;56303;52.160;-0.428;2022-07-31T00:59:02;5.13;;;3.20;;
20743;SDS011;56303;52.160;-0.428;2022-07-31T01:01:30;2.97;;;2.57;;
20743;SDS011;56303;52.160;-0.428;2022-07-31T01:03:57;3.13;;;2.80;;
20743;SDS011;56303;52.160;-0.428;2022-07-31T01:06:24;3.30;;;2.37;;
20743;SDS011;56303;52.160;-0.428;2022-07-31T01:08:51;3.63;;;2.67;;
20743;SDS011;56303;52.160;-0.428;2022-07-31T01:11:20;3.90;;;2.80;;
20743;SDS011;56303;52.160;-0.428;2022-07-31T01:13:54;3.07;;;2.40;;
20743;SDS011;56303;52.160;-0.428;2022-07-31T01:16:25;3.57;;;2.63;;
20743;SDS011;56303;52.160;-0.428;2022-07-31T01:18:56;3.20;;;2.70;;
20743;SDS011;56303;52.160;-0.428;2022-07-31T01:21:30;4.17;;;2.60;;
20743;SDS011;56303;52.160;-0.428;2022-07-31T01:26:48;5.03;;;3.00;;
20743;SDS011;56303;52.160;-0.428;2022-07-31T01:29:43;4.03;;;3.00;;
20743;SDS011;56303;52.160;-0.428;2022-07-31T01:32:13;4.17;;;3.20;;
20743;SDS011;56303;52.160;-0.428;2022-07-31T01:37:33;4.77;;;3.80;;
20743;SDS011;56303;52.160;-0.428;2022-07-31T01:40:07;4.83;;;3.87;;
20743;SDS011;56303;52.160;-0.428;2022-07-31T01:43:10;4.40;;;3.10;;
20743;SDS011;56303;52.160;-0.428;2022-07-31T01:45:41;4.73;;;3.80;;
20743;SDS011;56303;52.160;-0.428;2022-07-31T01:48:12;4.43;;;3.50;;
20743;SDS011;56303;52.160;-0.428;2022-07-31T01:50:41;4.53;;;3.77;;
20743;SDS011;56303;52.160;-0.428;2022-07-31T01:53:12;6.90;;;4.03;;
20743;SDS011;56303;52.160;-0.428;2022-07-31T01:55:41;4.73;;;3.80;;
20743;SDS011;56303;52.160;-0.428;2022-07-31T01:58:31;4.87;;;3.60;;
20743;SDS011;56303;52.160;-0.428;2022-07-31T02:01:00;4.03;;;3.33;;
20743;SDS011;56303;52.160;-0.428;2022-07-31T02:03:29;4.67;;;3.70;;
20743;SDS011;56303;52.160;-0.428;2022-07-31T02:06:11;5.37;;;3.70;;
20743;SDS011;56303;52.160;-0.428;2022-07-31T02:08:40;5.27;;;3.70;;
20743;SDS011;56303;52.160;-0.428;2022-07-31T02:11:12;4.93;;;4.00;;
20743;SDS011;56303;52.160;-0.428;2022-07-31T02:13:41;4.20;;;3.30;;
20743;SDS011;56303;52.160;-0.428;2022-07-31T02:16:09;4.60;;;3.70;;
20743;SDS011;56303;52.160;-0.428;2022-07-31T02:18:37;6.53;;;3.83;;
20743;SDS011;56303;52.160;-0.428;2022-07-31T02:21:05;4.93;;;3.83;;
20743;SDS011;56303;52.160;-0.428;2022-07-31T02:23:34;7.53;;;3.90;;
20743;SDS011;56303;52.160;-0.428;2022-07-31T02:26:03;6.23;;;4.03;;
20743;SDS011;56303;52.160;-0.428;2022-07-31T02:28:32;4.97;;;3.93;;
20743;SDS011;56303;52.160;-0.428;2022-07-31T02:31:04;5.90;;;4.00;;
20743;SDS011;56303;52.160;-0.428;2022-07-31T02:33:35;5.33;;;4.20;;
20743;SDS011;56303;52.160;-0.428;2022-07-31T02:36:04;5.83;;;4.33;;
20743;SDS011;56303;52.160;-0.428;2022-07-31T02:38:38;5.43;;;3.70;;
20743;SDS011;56303;52.160;-0.428;2022-07-31T02:41:08;5.00;;;4.00;;
20743;SDS011;56303;52.160;-0.428;2022-07-31T02:43:36;5.63;;;4.90;;
20743;SDS011;56303;52.160;-0.428;2022-07-31T02:46:04;6.17;;;3.97;;
20743;SDS011;56303;52.160;-0.428;2022-07-31T02:48:33;4.17;;;3.77;;
20743;SDS011;56303;52.160;-0.428;2022-07-31T02:51:02;4.93;;;3.87;;
20743;SDS011;56303;52.160;-0.428;2022-07-31T02:53:30;6.53;;;4.40;;
20743;SDS011;56303;52.160;-0.428;2022-07-31T02:55:57;4.73;;;3.97;;
20743;SDS011;56303;52.160;-0.428;2022-07-31T02:58:26;4.63;;;4.07;;
20743;SDS011;56303;52.160;-0.428;2022-07-31T03:01:00;4.80;;;4.17;;
20743;SDS011;56303;52.160;-0.428;2022-07-31T03:03:28;5.37;;;4.17;;
20743;SDS011;56303;52.160;-0.428;2022-07-31T03:05:55;5.67;;;3.60;;
20743;SDS011;56303;52.160;-0.428;2022-07-31T03:08:22;4.33;;;3.50;;
20743;SDS011;56303;52.160;-0.428;2022-07-31T03:10:49;4.70;;;3.60;;
20743;SDS011;56303;52.160;-0.428;2022-07-31T03:13:16;4.57;;;3.50;;
20743;SDS011;56303;52.160;-0.428;2022-07-31T03:15:45;5.10;;;3.43;;
20743;SDS011;56303;52.160;-0.428;2022-07-31T03:18:16;4.80;;;3.83;;
20743;SDS011;56303;52.160;-0.428;2022-07-31T03:20:44;4.30;;;3.57;;
20743;SDS011;56303;52.160;-0.428;2022-07-31T03:23:11;4.90;;;3.30;;
20743;SDS011;56303;52.160;-0.428;2022-07-31T03:25:40;5.57;;;3.70;;
20743;SDS011;56303;52.160;-0.428;2022-07-31T03:28:07;3.97;;;3.50;;
20743;SDS011;56303;52.160;-0.428;2022-07-31T03:30:34;3.67;;;3.27;;
20743;SDS011;56303;52.160;-0.428;2022-07-31T03:33:01;5.70;;;3.30;;
20743;SDS011;56303;52.160;-0.428;2022-07-31T03:35:28;4.03;;;3.33;;
20743;SDS011;56303;52.160;-0.428;2022-07-31T03:37:55;6.13;;;3.80;;
20743;SDS011;56303;52.160;-0.428;2022-07-31T03:40:23;4.77;;;3.17;;
20743;SDS011;56303;52.160;-0.428;2022-07-31T03:42:50;5.93;;;4.00;;
20743;SDS011;56303;52.160;-0.428;2022-07-31T03:45:18;4.10;;;3.57;;
20743;SDS011;56303;52.160;-0.428;2022-07-31T03:47:46;3.63;;;3.27;;
20743;SDS011;56303;52.160;-0.428;2022-07-31T03:50:14;4.70;;;3.50;;
20743;SDS011;56303;52.160;-0.428;2022-07-31T03:52:43;5.07;;;3.27;;
20743;SDS011;56303;52.160;-0.428;2022-07-31T03:55:14;6.60;;;3.60;;
20743;SDS011;56303;52.160;-0.428;2022-07-31T03:57:41;4.73;;;3.53;;
20743;SDS011;56303;52.160;-0.428;2022-07-31T04:00:12;6.23;;;3.90;;
20743;SDS011;56303;52.160;-0.428;2022-07-31T04:02:43;4.43;;;3.63;;
20743;SDS011;56303;52.160;-0.428;2022-07-31T04:05:10;5.07;;;3.97;;
20743;SDS011;56303;52.160;-0.428;2022-07-31T04:07:37;5.17;;;3.63;;
20743;SDS011;56303;52.160;-0.428;2022-07-31T04:10:04;5.50;;;4.37;;
20743;SDS011;56303;52.160;-0.428;2022-07-31T04:12:32;4.50;;;3.80;;
20743;SDS011;56303;52.160;-0.428;2022-07-31T04:14:59;4.90;;;3.57;;
20743;SDS011;56303;52.160;-0.428;2022-07-31T04:17:25;5.87;;;4.27;;
20743;SDS011;56303;52.160;-0.428;2022-07-31T04:19:56;7.17;;;4.30;;
20743;SDS011;56303;52.160;-0.428;2022-07-31T04:22:23;4.53;;;3.93;;
20743;SDS011;56303;52.160;-0.428;2022-07-31T04:24:50;6.70;;;4.37;;
20743;SDS011;56303;52.160;-0.428;2022-07-31T04:27:17;6.47;;;4.27;;
20743;SDS011;56303;52.160;-0.428;2022-07-31T04:29:44;5.10;;;4.23;;
20743;SDS011;56303;52.160;-0.428;2022-07-31T04:32:11;6.33;;;4.20;;
20743;SDS011;56303;52.160;-0.428;2022-07-31T04:34:38;6.03;;;3.90;;
20743;SDS011;56303;52.160;-0.428;2022-07-31T04:37:05;5.10;;;4.00;;
20743;SDS011;56303;52.160;-0.428;2022-07-31T04:39:32;4.70;;;4.13;;
20743;SDS011;56303;52.160;-0.428;2022-07-31T04:41:59;4.60;;;3.70;;
20743;SDS011;56303;52.160;-0.428;2022-07-31T04:44:26;7.00;;;4.57;;
20743;SDS011;56303;52.160;-0.428;2022-07-31T04:46:57;5.67;;;4.50;;
20743;SDS011;56303;52.160;-0.428;2022-07-31T04:49:25;5.33;;;4.17;;
20743;SDS011;56303;52.160;-0.428;2022-07-31T04:51:52;5.30;;;4.13;;
20743;SDS011;56303;52.160;-0.428;2022-07-31T04:54:18;5.67;;;4.60;;
20743;SDS011;56303;52.160;-0.428;2022-07-31T04:56:45;5.03;;;4.30;;
20743;SDS011;56303;52.160;-0.428;2022-07-31T04:59:15;6.47;;;4.13;;
20743;SDS011;56303;52.160;-0.428;2022-07-31T05:01:43;5.00;;;4.03;;
20743;SDS011;56303;52.160;-0.428;2022-07-31T05:04:10;5.50;;;4.50;;
20743;SDS011;56303;52.160;-0.428;2022-07-31T05:09:07;5.53;;;4.33;;
20743;SDS011;56303;52.160;-0.428;2022-07-31T05:11:43;6.60;;;4.27;;
20743;SDS011;56303;52.160;-0.428;2022-07-31T05:14:11;6.20;;;4.30;;
20743;SDS011;56303;52.160;-0.428;2022-07-31T05:16:40;7.60;;;4.20;;
20743;SDS011;56303;52.160;-0.428;2022-07-31T05:19:07;6.17;;;4.30;;
20743;SDS011;56303;52.160;-0.428;2022-07-31T05:21:40;4.67;;;3.83;;
20743;SDS011;56303;52.160;-0.428;2022-07-31T05:24:19;6.10;;;3.67;;
20743;SDS011;56303;52.160;-0.428;2022-07-31T05:26:59;5.17;;;3.83;;
20743;SDS011;56303;52.160;-0.428;2022-07-31T05:29:27;4.93;;;3.67;;
20743;SDS011;56303;52.160;-0.428;2022-07-31T05:31:55;4.77;;;3.80;;
20743;SDS011;56303;52.160;-0.428;2022-07-31T05:34:35;7.17;;;3.23;;
20743;SDS011;56303;52.160;-0.428;2022-07-31T05:37:02;4.77;;;3.50;;
20743;SDS011;56303;52.160;-0.428;2022-07-31T05:39:29;5.30;;;3.63;;
20743;SDS011;56303;52.160;-0.428;2022-07-31T05:41:56;4.63;;;3.70;;
20743;SDS011;56303;52.160;-0.428;2022-07-31T05:44:23;4.90;;;3.73;;
20743;SDS011;56303;52.160;-0.428;2022-07-31T05:46:50;5.77;;;3.80;;
20743;SDS011;56303;52.160;-0.428;2022-07-31T05:49:16;6.13;;;3.27;;
20743;SDS011;56303;52.160;-0.428;2022-07-31T05:51:43;4.13;;;3.07;;
20743;SDS011;56303;52.160;-0.428;2022-07-31T05:54:11;6.33;;;3.40;;
20743;SDS011;56303;52.160;-0.428;2022-07-31T05:56:39;5.90;;;3.33;;
20743;SDS011;56303;52.160;-0.428;2022-07-31T05:59:05;5.83;;;3.60;;
20743;SDS011;56303;52.160;-0.428;2022-07-31T06:01:33;4.80;;;3.33;;
20743;SDS011;56303;52.160;-0.428;2022-07-31T06:04:00;6.40;;;3.40;;
20743;SDS011;56303;52.160;-0.428;2022-07-31T06:06:28;5.80;;;3.33;;
20743;SDS011;56303;52.160;-0.428;2022-07-31T06:08:55;5.97;;;3.33;;
20743;SDS011;56303;52.160;-0.428;2022-07-31T06:11:29;4.23;;;2.80;;
20743;SDS011;56303;52.160;-0.428;2022-07-31T06:13:55;4.57;;;3.23;;
20743;SDS011;56303;52.160;-0.428;2022-07-31T06:16:23;5.30;;;3.50;;
20743;SDS011;56303;52.160;-0.428;2022-07-31T06:18:50;5.33;;;3.07;;
20743;SDS011;56303;52.160;-0.428;2022-07-31T06:21:17;6.10;;;3.53;;
20743;SDS011;56303;52.160;-0.428;2022-07-31T06:23:43;4.20;;;3.23;;
20743;SDS011;56303;52.160;-0.428;2022-07-31T06:26:10;5.10;;;2.93;;
20743;SDS011;56303;52.160;-0.428;2022-07-31T06:28:37;3.60;;;3.20;;
20743;SDS011;56303;52.160;-0.428;2022-07-31T06:31:17;4.50;;;2.83;;
20743;SDS011;56303;52.160;-0.428;2022-07-31T06:33:46;4.80;;;3.20;;
20743;SDS011;56303;52.160;-0.428;2022-07-31T06:36:15;3.57;;;2.47;;
20743;SDS011;56303;52.160;-0.428;2022-07-31T06:38:43;4.93;;;3.00;;
20743;SDS011;56303;52.160;-0.428;2022-07-31T06:41:11;4.40;;;2.63;;
20743;SDS011;56303;52.160;-0.428;2022-07-31T06:43:57;3.83;;;3.20;;
20743;SDS011;56303;52.160;-0.428;2022-07-31T06:46:24;2.70;;;2.30;;
20743;SDS011;56303;52.160;-0.428;2022-07-31T06:48:51;4.17;;;2.67;;
20743;SDS011;56303;52.160;-0.428;2022-07-31T06:51:18;3.50;;;2.50;;
20743;SDS011;56303;52.160;-0.428;2022-07-31T06:53:57;5.20;;;2.90;;
20743;SDS011;56303;52.160;-0.428;2022-07-31T06:56:25;4.07;;;2.77;;
20743;SDS011;56303;52.160;-0.428;2022-07-31T06:58:52;4.23;;;3.10;;
20743;SDS011;56303;52.160;-0.428;2022-07-31T07:01:19;5.37;;;2.97;;
20743;SDS011;56303;52.160;-0.428;2022-07-31T07:03:46;5.67;;;3.07;;
20743;SDS011;56303;52.160;-0.428;2022-07-31T07:06:13;3.63;;;2.43;;
20743;SDS011;56303;52.160;-0.428;2022-07-31T07:08:41;3.30;;;2.50;;
20743;SDS011;56303;52.160;-0.428;2022-07-31T07:11:08;3.93;;;2.70;;
20743;SDS011;56303;52.160;-0.428;2022-07-31T07:13:37;3.57;;;2.60;;
20743;SDS011;56303;52.160;-0.428;2022-07-31T07:16:12;3.47;;;2.30;;
20743;SDS011;56303;52.160;-0.428;2022-07-31T07:18:40;3.03;;;2.40;;
20743;SDS011;56303;52.160;-0.428;2022-07-31T07:21:08;3.50;;;2.37;;
20743;SDS011;56303;52.160;-0.428;2022-07-31T07:23:35;2.77;;;2.30;;
20743;SDS011;56303;52.160;-0.428;2022-07-31T07:26:03;3.53;;;2.30;;
20743;SDS011;56303;52.160;-0.428;2022-07-31T07:28:30;2.27;;;2.07;;
20743;SDS011;56303;52.160;-0.428;2022-07-31T07:30:57;2.67;;;2.10;;
20743;SDS011;56303;52.160;-0.428;2022-07-31T07:33:24;3.33;;;2.43;;
20743;SDS011;56303;52.160;-0.428;2022-07-31T07:36:07;4.17;;;2.37;;
20743;SDS011;56303;52.160;-0.428;2022-07-31T07:38:48;2.60;;;2.40;;
20743;SDS011;56303;52.160;-0.428;2022-07-31T07:41:15;2.30;;;2.00;;
20743;SDS011;56303;52.160;-0.428;2022-07-31T07:43:43;2.97;;;2.27;;
20743;SDS011;56303;52.160;-0.428;2022-07-31T07:46:17;4.33;;;2.00;;
20743;SDS011;56303;52.160;-0.428;2022-07-31T07:48:43;2.83;;;2.07;;
20743;SDS011;56303;52.160;-0.428;2022-07-31T07:51:11;2.43;;;1.80;;
20743;SDS011;56303;52.160;-0.428;2022-07-31T07:53:37;2.23;;;2.00;;
20743;SDS011;56303;52.160;-0.428;2022-07-31T07:56:05;3.83;;;2.27;;
20743;SDS011;56303;52.160;-0.428;2022-07-31T07:58:32;3.17;;;2.20;;
20743;SDS011;56303;52.160;-0.428;2022-07-31T08:00:59;2.83;;;2.00;;
20743;SDS011;56303;52.160;-0.428;2022-07-31T08:03:26;3.90;;;2.10;;
20743;SDS011;56303;52.160;-0.428;2022-07-31T08:06:14;2.83;;;1.90;;
20743;SDS011;56303;52.160;-0.428;2022-07-31T08:08:41;2.73;;;2.17;;
20743;SDS011;56303;52.160;-0.428;2022-07-31T08:11:07;3.83;;;2.10;;
20743;SDS011;56303;52.160;-0.428;2022-07-31T08:13:34;2.37;;;2.10;;
20743;SDS011;56303;52.160;-0.428;2022-07-31T08:16:03;3.30;;;2.37;;
20743;SDS011;56303;52.160;-0.428;2022-07-31T08:18:30;2.93;;;2.60;;
20743;SDS011;56303;52.160;-0.428;2022-07-31T08:20:57;4.17;;;2.60;;
20743;SDS011;56303;52.160;-0.428;2022-07-31T08:23:24;3.60;;;2.50;;
20743;SDS011;56303;52.160;-0.428;2022-07-31T08:25:51;2.67;;;2.20;;
20743;SDS011;56303;52.160;-0.428;2022-07-31T08:28:20;5.17;;;2.30;;
20743;SDS011;56303;52.160;-0.428;2022-07-31T08:30:51;2.60;;;1.97;;
20743;SDS011;56303;52.160;-0.428;2022-07-31T08:33:18;2.43;;;1.90;;
20743;SDS011;56303;52.160;-0.428;2022-07-31T08:35:45;4.37;;;2.60;;
20743;SDS011;56303;52.160;-0.428;2022-07-31T08:38:18;2.90;;;2.27;;
20743;SDS011;56303;52.160;-0.428;2022-07-31T08:40:45;4.00;;;2.23;;
20743;SDS011;56303;52.160;-0.428;2022-07-31T08:43:12;2.60;;;2.10;;
20743;SDS011;56303;52.160;-0.428;2022-07-31T08:46:00;2.47;;;2.10;;
20743;SDS011;56303;52.160;-0.428;2022-07-31T08:48:29;1.80;;;1.70;;
20743;SDS011;56303;52.160;-0.428;2022-07-31T08:51:00;3.73;;;1.70;;
20743;SDS011;56303;52.160;-0.428;2022-07-31T08:53:29;1.83;;;1.70;;
20743;SDS011;56303;52.160;-0.428;2022-07-31T08:55:58;2.93;;;2.03;;
20743;SDS011;56303;52.160;-0.428;2022-07-31T08:58:25;3.40;;;1.90;;
20743;SDS011;56303;52.160;-0.428;2022-07-31T09:00:52;2.87;;;2.10;;
20743;SDS011;56303;52.160;-0.428;2022-07-31T09:03:20;1.93;;;1.77;;
20743;SDS011;56303;52.160;-0.428;2022-07-31T09:05:47;2.37;;;1.90;;
20743;SDS011;56303;52.160;-0.428;2022-07-31T09:08:14;1.80;;;1.70;;
20743;SDS011;56303;52.160;-0.428;2022-07-31T09:10:41;2.00;;;1.63;;
20743;SDS011;56303;52.160;-0.428;2022-07-31T09:13:16;2.03;;;1.80;;
20743;SDS011;56303;52.160;-0.428;2022-07-31T09:15:43;1.57;;;1.43;;
20743;SDS011;56303;52.160;-0.428;2022-07-31T09:18:20;2.13;;;1.60;;
20743;SDS011;56303;52.160;-0.428;2022-07-31T09:23:30;1.40;;;1.30;;
20743;SDS011;56303;52.160;-0.428;2022-07-31T09:25:58;2.00;;;1.60;;
20743;SDS011;56303;52.160;-0.428;2022-07-31T09:28:31;1.60;;;1.50;;
20743;SDS011;56303;52.160;-0.428;2022-07-31T09:31:10;1.40;;;1.40;;
20743;SDS011;56303;52.160;-0.428;2022-07-31T09:33:41;1.40;;;1.30;;
20743;SDS011;56303;52.160;-0.428;2022-07-31T09:36:11;3.70;;;1.50;;
20743;SDS011;56303;52.160;-0.428;2022-07-31T09:38:40;2.27;;;1.60;;
20743;SDS011;56303;52.160;-0.428;2022-07-31T09:41:14;1.83;;;1.50;;
20743;SDS011;56303;52.160;-0.428;2022-07-31T09:44:05;2.93;;;1.77;;
20743;SDS011;56303;52.160;-0.428;2022-07-31T09:46:42;1.93;;;1.70;;
20743;SDS011;56303;52.160;-0.428;2022-07-31T09:49:13;1.70;;;1.60;;
20743;SDS011;56303;52.160;-0.428;2022-07-31T09:51:41;3.03;;;1.70;;
20743;SDS011;56303;52.160;-0.428;2022-07-31T09:57:12;1.90;;;1.57;;
20743;SDS011;56303;52.160;-0.428;2022-07-31T09:59:40;1.40;;;1.30;;
20743;SDS011;56303;52.160;-0.428;2022-07-31T10:02:07;2.17;;;1.50;;
20743;SDS011;56303;52.160;-0.428;2022-07-31T10:04:37;1.77;;;1.53;;
20743;SDS011;56303;52.160;-0.428;2022-07-31T10:07:04;1.93;;;1.40;;
20743;SDS011;56303;52.160;-0.428;2022-07-31T10:09:32;2.00;;;1.63;;
20743;SDS011;56303;52.160;-0.428;2022-07-31T10:11:59;1.57;;;1.47;;
20743;SDS011;56303;52.160;-0.428;2022-07-31T10:14:29;1.93;;;1.20;;
20743;SDS011;56303;52.160;-0.428;2022-07-31T10:17:00;1.77;;;1.30;;
20743;SDS011;56303;52.160;-0.428;2022-07-31T10:19:36;1.40;;;1.30;;
20743;SDS011;56303;52.160;-0.428;2022-07-31T10:22:06;2.30;;;1.50;;
20743;SDS011;56303;52.160;-0.428;2022-07-31T10:24:39;1.50;;;1.40;;
20743;SDS011;56303;52.160;-0.428;2022-07-31T10:27:10;1.60;;;1.50;;
20743;SDS011;56303;52.160;-0.428;2022-07-31T10:29:39;1.40;;;1.33;;
20743;SDS011;56303;52.160;-0.428;2022-07-31T10:32:07;1.83;;;1.33;;
20743;SDS011;56303;52.160;-0.428;2022-07-31T10:34:34;1.77;;;1.53;;
20743;SDS011;56303;52.160;-0.428;2022-07-31T10:37:04;1.30;;;1.20;;
20743;SDS011;56303;52.160;-0.428;2022-07-31T10:39:48;1.43;;;1.33;;
20743;SDS011;56303;52.160;-0.428;2022-07-31T10:45:14;1.53;;;1.40;;
20743;SDS011;56303;52.160;-0.428;2022-07-31T10:50:25;1.97;;;1.20;;
20743;SDS011;56303;52.160;-0.428;2022-07-31T10:52:53;0.87;;;0.87;;
20743;SDS011;56303;52.160;-0.428;2022-07-31T10:55:25;1.20;;;1.17;;
20743;SDS011;56303;52.160;-0.428;2022-07-31T10:57:55;2.27;;;1.27;;
20743;SDS011;56303;52.160;-0.428;2022-07-31T11:00:32;1.50;;;1.20;;
20743;SDS011;56303;52.160;-0.428;2022-07-31T11:03:10;4.73;;;1.50;;
20743;SDS011;56303;52.160;-0.428;2022-07-31T11:05:38;1.57;;;1.43;;
20743;SDS011;56303;52.160;-0.428;2022-07-31T11:08:25;1.33;;;1.33;;
20743;SDS011;56303;52.160;-0.428;2022-07-31T11:10:53;1.10;;;1.10;;
20743;SDS011;56303;52.160;-0.428;2022-07-31T11:13:21;1.80;;;1.20;;
20743;SDS011;56303;52.160;-0.428;2022-07-31T11:16:03;0.83;;;0.83;;
20743;SDS011;56303;52.160;-0.428;2022-07-31T11:18:30;1.37;;;0.80;;
20743;SDS011;56303;52.160;-0.428;2022-07-31T11:21:00;1.33;;;1.23;;
20743;SDS011;56303;52.160;-0.428;2022-07-31T11:23:50;0.70;;;0.70;;
20743;SDS011;56303;52.160;-0.428;2022-07-31T11:26:28;0.83;;;0.83;;
20743;SDS011;56303;52.160;-0.428;2022-07-31T11:29:07;0.80;;;0.80;;
20743;SDS011;56303;52.160;-0.428;2022-07-31T11:32:14;0.50;;;0.50;;
20743;SDS011;56303;52.160;-0.428;2022-07-31T11:34:51;0.80;;;0.80;;
20743;SDS011;56303;52.160;-0.428;2022-07-31T11:37:20;0.60;;;0.60;;
20743;SDS011;56303;52.160;-0.428;2022-07-31T11:39:49;0.80;;;0.80;;
20743;SDS011;56303;52.160;-0.428;2022-07-31T11:42:19;1.20;;;0.93;;
20743;SDS011;56303;52.160;-0.428;2022-07-31T11:45:00;0.63;;;0.63;;
20743;SDS011;56303;52.160;-0.428;2022-07-31T11:47:39;1.10;;;0.97;;
20743;SDS011;56303;52.160;-0.428;2022-07-31T11:50:28;0.87;;;0.83;;
20743;SDS011;56303;52.160;-0.428;2022-07-31T11:53:03;0.80;;;0.80;;
20743;SDS011;56303;52.160;-0.428;2022-07-31T11:55:42;0.80;;;0.80;;
20743;SDS011;56303;52.160;-0.428;2022-07-31T11:58:29;1.37;;;0.70;;
20743;SDS011;56303;52.160;-0.428;2022-07-31T12:00:57;1.37;;;0.80;;
20743;SDS011;56303;52.160;-0.428;2022-07-31T12:03:33;0.80;;;0.70;;
20743;SDS011;56303;52.160;-0.428;2022-07-31T12:06:02;1.70;;;1.10;;
20743;SDS011;56303;52.160;-0.428;2022-07-31T12:08:30;0.73;;;0.60;;
20743;SDS011;56303;52.160;-0.428;2022-07-31T12:10:59;0.67;;;0.67;;
20743;SDS011;56303;52.160;-0.428;2022-07-31T12:13:26;1.70;;;1.00;;
20743;SDS011;56303;52.160;-0.428;2022-07-31T12:18:26;0.90;;;0.90;;
20743;SDS011;56303;52.160;-0.428;2022-07-31T12:20:56;0.60;;;0.60;;
20743;SDS011;56303;52.160;-0.428;2022-07-31T12:23:39;1.30;;;1.00;;
20743;SDS011;56303;52.160;-0.428;2022-07-31T12:26:22;0.87;;;0.87;;
20743;SDS011;56303;52.160;-0.428;2022-07-31T12:31:27;2.00;;;1.13;;
20743;SDS011;56303;52.160;-0.428;2022-07-31T12:33:55;0.83;;;0.70;;
20743;SDS011;56303;52.160;-0.428;2022-07-31T12:36:22;1.23;;;1.13;;
20743;SDS011;56303;52.160;-0.428;2022-07-31T12:38:59;0.60;;;0.60;;
20743;SDS011;56303;52.160;-0.428;2022-07-31T12:41:29;1.10;;;1.00;;
20743;SDS011;56303;52.160;-0.428;2022-07-31T12:44:07;1.00;;;1.00;;
20743;SDS011;56303;52.160;-0.428;2022-07-31T12:46:38;1.53;;;0.77;;
20743;SDS011;56303;52.160;-0.428;2022-07-31T12:49:05;0.80;;;0.80;;
20743;SDS011;56303;52.160;-0.428;2022-07-31T12:51:33;1.87;;;0.70;;
20743;SDS011;56303;52.160;-0.428;2022-07-31T12:54:11;0.87;;;0.80;;
20743;SDS011;56303;52.160;-0.428;2022-07-31T12:56:42;1.05;;;0.47;;
20743;SDS011;56303;52.160;-0.428;2022-07-31T12:59:10;0.77;;;0.77;;
20743;SDS011;56303;52.160;-0.428;2022-07-31T13:01:37;0.60;;;0.60;;
20743;SDS011;56303;52.160;-0.428;2022-07-31T13:04:04;1.30;;;0.60;;
20743;SDS011;56303;52.160;-0.428;2022-07-31T13:06:43;0.93;;;0.83;;
20743;SDS011;56303;52.160;-0.428;2022-07-31T13:09:10;1.23;;;1.13;;
20743;SDS011;56303;52.160;-0.428;2022-07-31T13:11:37;1.47;;;0.60;;
20743;SDS011;56303;52.160;-0.428;2022-07-31T13:14:16;0.80;;;0.80;;
20743;SDS011;56303;52.160;-0.428;2022-07-31T13:16:46;1.33;;;0.70;;
20743;SDS011;56303;52.160;-0.428;2022-07-31T13:19:14;0.67;;;0.67;;
20743;SDS011;56303;52.160;-0.428;2022-07-31T13:21:41;0.57;;;0.57;;
20743;SDS011;56303;52.160;-0.428;2022-07-31T13:24:15;0.63;;;0.63;;
20743;SDS011;56303;52.160;-0.428;2022-07-31T13:26:43;0.60;;;0.60;;
20743;SDS011;56303;52.160;-0.428;2022-07-31T13:29:10;0.60;;;0.60;;
20743;SDS011;56303;52.160;-0.428;2022-07-31T13:31:37;0.80;;;0.80;;
20743;SDS011;56303;52.160;-0.428;2022-07-31T13:34:05;0.60;;;0.60;;
20743;SDS011;56303;52.160;-0.428;2022-07-31T13:36:32;0.95;;;0.85;;
20743;SDS011;56303;52.160;-0.428;2022-07-31T13:39:04;0.60;;;0.60;;
20743;SDS011;56303;52.160;-0.428;2022-07-31T13:41:32;0.88;;;0.85;;
20743;SDS011;56303;52.160;-0.428;2022-07-31T13:44:01;1.00;;;1.00;;
20743;SDS011;56303;52.160;-0.428;2022-07-31T13:46:28;0.70;;;0.70;;
20743;SDS011;56303;52.160;-0.428;2022-07-31T13:48:57;0.90;;;0.90;;
20743;SDS011;56303;52.160;-0.428;2022-07-31T13:51:27;0.88;;;0.88;;
20743;SDS011;56303;52.160;-0.428;2022-07-31T13:53:54;0.90;;;0.90;;
20743;SDS011;56303;52.160;-0.428;2022-07-31T13:56:21;0.70;;;0.70;;
20743;SDS011;56303;52.160;-0.428;2022-07-31T13:59:08;0.82;;;0.82;;
20743;SDS011;56303;52.160;-0.428;2022-07-31T14:01:36;0.80;;;0.80;;
20743;SDS011;56303;52.160;-0.428;2022-07-31T14:04:24;0.70;;;0.70;;
20743;SDS011;56303;52.160;-0.428;2022-07-31T14:06:56;1.33;;;1.23;;
20743;SDS011;56303;52.160;-0.428;2022-07-31T14:09:25;1.23;;;1.17;;
20743;SDS011;56303;52.160;-0.428;2022-07-31T14:11:53;1.67;;;1.58;;
20743;SDS011;56303;52.160;-0.428;2022-07-31T14:14:21;1.75;;;1.65;;
20743;SDS011;56303;52.160;-0.428;2022-07-31T14:16:49;1.27;;;1.25;;
20743;SDS011;56303;52.160;-0.428;2022-07-31T14:19:16;1.50;;;1.40;;
20743;SDS011;56303;52.160;-0.428;2022-07-31T14:21:43;1.20;;;1.20;;
20743;SDS011;56303;52.160;-0.428;2022-07-31T14:24:21;2.20;;;1.90;;
20743;SDS011;56303;52.160;-0.428;2022-07-31T14:26:49;2.25;;;1.98;;
20743;SDS011;56303;52.160;-0.428;2022-07-31T14:29:16;4.85;;;1.70;;
20743;SDS011;56303;52.160;-0.428;2022-07-31T14:31:43;2.58;;;2.00;;
20743;SDS011;56303;52.160;-0.428;2022-07-31T14:34:09;2.40;;;2.20;;
20743;SDS011;56303;52.160;-0.428;2022-07-31T14:36:36;2.45;;;2.20;;
20743;SDS011;56303;52.160;-0.428;2022-07-31T14:39:03;2.30;;;2.10;;
20743;SDS011;56303;52.160;-0.428;2022-07-31T14:41:30;2.42;;;2.20;;
20743;SDS011;56303;52.160;-0.428;2022-07-31T14:43:57;2.95;;;2.72;;
20743;SDS011;56303;52.160;-0.428;2022-07-31T14:46:23;4.35;;;3.00;;
20743;SDS011;56303;52.160;-0.428;2022-07-31T14:48:50;11.63;;;3.25;;
20743;SDS011;56303;52.160;-0.428;2022-07-31T14:51:18;3.15;;;2.70;;
20743;SDS011;56303;52.160;-0.428;2022-07-31T14:53:45;3.03;;;2.53;;
20743;SDS011;56303;52.160;-0.428;2022-07-31T14:56:13;2.80;;;2.60;;
20743;SDS011;56303;52.160;-0.428;2022-07-31T14:58:59;3.00;;;2.70;;
20743;SDS011;56303;52.160;-0.428;2022-07-31T15:01:26;3.00;;;2.75;;
20743;SDS011;56303;52.160;-0.428;2022-07-31T15:03:56;3.67;;;3.03;;
20743;SDS011;56303;52.160;-0.428;2022-07-31T15:06:23;2.90;;;2.60;;
20743;SDS011;56303;52.160;-0.428;2022-07-31T15:09:10;4.13;;;2.85;;
20743;SDS011;56303;52.160;-0.428;2022-07-31T15:11:41;3.00;;;2.70;;
20743;SDS011;56303;52.160;-0.428;2022-07-31T15:14:26;2.90;;;2.60;;
20743;SDS011;56303;52.160;-0.428;2022-07-31T15:16:52;2.78;;;2.58;;